sensor_id;sensor_type;location;lat;lon;timestamp;temperature;humidity
4453;DHT22;2239;48.152;11.584;2023-05-07T00:01:35;14.70;99.90
4453;DHT22;2239;48.152;11.584;2023-05-07T00:04:01;14.60;99.90
4453;DHT22;2239;48.152;11.584;2023-05-07T00:06:26;14.50;99.90
4453;DHT22;2239;48.152;11.584;2023-05-07T00:08:54;14.40;99.90
4453;DHT22;2239;48.152;11.584;2023-05-07T00:11:20;14.30;99.90
4453;DHT22;2239;48.152;11.584;2023-05-07T00:13:46;14.20;99.90
4453;DHT22;2239;48.152;11.584;2023-05-07T00:16:12;14.20;99.90
4453;DHT22;2239;48.152;11.584;2023-05-07T00:18:37;14.20;99.90
4453;DHT22;2239;48.152;11.584;2023-05-07T00:21:03;14.20;99.90
4453;DHT22;2239;48.152;11.584;2023-05-07T00:23:28;14.10;99.90
4453;DHT22;2239;48.152;11.584;2023-05-07T00:25:54;14.10;99.90
4453;DHT22;2239;48.152;11.584;2023-05-07T00:28:20;14.10;99.90
4453;DHT22;2239;48.152;11.584;2023-05-07T00:30:45;14.10;99.90
4453;DHT22;2239;48.152;11.584;2023-05-07T00:33:11;14.00;99.90
4453;DHT22;2239;48.152;11.584;2023-05-07T00:35:36;14.00;99.90
4453;DHT22;2239;48.152;11.584;2023-05-07T00:38:02;13.90;99.90
4453;DHT22;2239;48.152;11.584;2023-05-07T00:40:27;13.90;99.90
4453;DHT22;2239;48.152;11.584;2023-05-07T00:42:53;13.80;99.90
4453;DHT22;2239;48.152;11.584;2023-05-07T00:45:26;13.80;99.90
4453;DHT22;2239;48.152;11.584;2023-05-07T00:47:54;13.80;99.90
4453;DHT22;2239;48.152;11.584;2023-05-07T00:50:19;13.80;99.90
4453;DHT22;2239;48.152;11.584;2023-05-07T00:52:45;13.80;99.90
4453;DHT22;2239;48.152;11.584;2023-05-07T00:55:11;13.80;99.90
4453;DHT22;2239;48.152;11.584;2023-05-07T00:57:40;13.90;99.90
4453;DHT22;2239;48.152;11.584;2023-05-07T01:00:07;13.90;99.90
4453;DHT22;2239;48.152;11.584;2023-05-07T01:02:35;13.90;99.90
4453;DHT22;2239;48.152;11.584;2023-05-07T01:05:01;13.90;99.90
4453;DHT22;2239;48.152;11.584;2023-05-07T01:07:29;13.90;99.90
4453;DHT22;2239;48.152;11.584;2023-05-07T01:09:56;13.80;99.90
4453;DHT22;2239;48.152;11.584;2023-05-07T01:12:22;13.90;99.90
4453;DHT22;2239;48.152;11.584;2023-05-07T01:14:48;13.90;99.90
4453;DHT22;2239;48.152;11.584;2023-05-07T01:17:15;13.90;99.90
4453;DHT22;2239;48.152;11.584;2023-05-07T01:19:41;13.80;99.90
4453;DHT22;2239;48.152;11.584;2023-05-07T01:22:10;13.80;99.90
4453;DHT22;2239;48.152;11.584;2023-05-07T01:24:40;13.70;99.90
4453;DHT22;2239;48.152;11.584;2023-05-07T01:27:07;13.70;99.90
4453;DHT22;2239;48.152;11.584;2023-05-07T01:29:32;13.60;99.90
4453;DHT22;2239;48.152;11.584;2023-05-07T01:31:59;13.50;99.90
4453;DHT22;2239;48.152;11.584;2023-05-07T01:34:27;13.50;99.90
4453;DHT22;2239;48.152;11.584;2023-05-07T01:36:56;13.50;99.90
4453;DHT22;2239;48.152;11.584;2023-05-07T01:39:25;13.40;99.90
4453;DHT22;2239;48.152;11.584;2023-05-07T01:41:51;13.40;99.90
4453;DHT22;2239;48.152;11.584;2023-05-07T01:44:17;13.40;99.90
4453;DHT22;2239;48.152;11.584;2023-05-07T01:46:44;13.40;99.90
4453;DHT22;2239;48.152;11.584;2023-05-07T01:49:10;13.40;99.90
4453;DHT22;2239;48.152;11.584;2023-05-07T01:51:36;13.40;99.90
4453;DHT22;2239;48.152;11.584;2023-05-07T01:54:02;13.40;99.90
4453;DHT22;2239;48.152;11.584;2023-05-07T01:56:27;13.50;99.90
4453;DHT22;2239;48.152;11.584;2023-05-07T01:58:53;13.40;99.90
4453;DHT22;2239;48.152;11.584;2023-05-07T02:01:18;13.40;99.90
4453;DHT22;2239;48.152;11.584;2023-05-07T02:03:44;13.40;99.90
4453;DHT22;2239;48.152;11.584;2023-05-07T02:06:10;13.30;99.90
4453;DHT22;2239;48.152;11.584;2023-05-07T02:08:35;13.30;99.90
4453;DHT22;2239;48.152;11.584;2023-05-07T02:11:02;13.30;99.90
4453;DHT22;2239;48.152;11.584;2023-05-07T02:13:31;13.30;99.90
4453;DHT22;2239;48.152;11.584;2023-05-07T02:15:57;13.30;99.90
4453;DHT22;2239;48.152;11.584;2023-05-07T02:18:22;13.30;99.90
4453;DHT22;2239;48.152;11.584;2023-05-07T02:20:48;13.30;99.90
4453;DHT22;2239;48.152;11.584;2023-05-07T02:23:15;13.30;99.90
4453;DHT22;2239;48.152;11.584;2023-05-07T02:25:40;13.30;99.90
4453;DHT22;2239;48.152;11.584;2023-05-07T02:28:06;13.30;99.90
4453;DHT22;2239;48.152;11.584;2023-05-07T02:30:31;13.20;99.90
4453;DHT22;2239;48.152;11.584;2023-05-07T02:32:57;13.20;99.90
4453;DHT22;2239;48.152;11.584;2023-05-07T02:35:24;13.10;99.90
4453;DHT22;2239;48.152;11.584;2023-05-07T02:37:50;13.10;99.90
4453;DHT22;2239;48.152;11.584;2023-05-07T02:40:15;13.10;99.90
4453;DHT22;2239;48.152;11.584;2023-05-07T02:42:44;13.10;99.90
4453;DHT22;2239;48.152;11.584;2023-05-07T02:45:10;13.20;99.90
4453;DHT22;2239;48.152;11.584;2023-05-07T02:47:36;13.20;99.90
4453;DHT22;2239;48.152;11.584;2023-05-07T02:50:02;13.10;99.90
4453;DHT22;2239;48.152;11.584;2023-05-07T02:52:27;13.00;99.90
4453;DHT22;2239;48.152;11.584;2023-05-07T02:54:53;13.00;99.90
4453;DHT22;2239;48.152;11.584;2023-05-07T02:57:18;13.00;99.90
4453;DHT22;2239;48.152;11.584;2023-05-07T02:59:44;13.00;99.90
4453;DHT22;2239;48.152;11.584;2023-05-07T03:02:09;13.00;99.90
4453;DHT22;2239;48.152;11.584;2023-05-07T03:04:35;13.00;99.90
4453;DHT22;2239;48.152;11.584;2023-05-07T03:07:01;12.90;99.90
4453;DHT22;2239;48.152;11.584;2023-05-07T03:09:26;13.00;99.90
4453;DHT22;2239;48.152;11.584;2023-05-07T03:11:52;13.00;99.90
4453;DHT22;2239;48.152;11.584;2023-05-07T03:14:17;12.90;99.90
4453;DHT22;2239;48.152;11.584;2023-05-07T03:16:43;13.00;99.90
4453;DHT22;2239;48.152;11.584;2023-05-07T03:19:08;13.00;99.90
4453;DHT22;2239;48.152;11.584;2023-05-07T03:21:34;13.00;99.90
4453;DHT22;2239;48.152;11.584;2023-05-07T03:24:00;12.90;99.90
4453;DHT22;2239;48.152;11.584;2023-05-07T03:26:26;13.00;99.90
4453;DHT22;2239;48.152;11.584;2023-05-07T03:28:51;12.90;99.90
4453;DHT22;2239;48.152;11.584;2023-05-07T03:31:17;12.90;99.90
4453;DHT22;2239;48.152;11.584;2023-05-07T03:33:51;13.00;99.90
4453;DHT22;2239;48.152;11.584;2023-05-07T03:36:17;12.90;99.90
4453;DHT22;2239;48.152;11.584;2023-05-07T03:38:43;12.90;99.90
4453;DHT22;2239;48.152;11.584;2023-05-07T03:41:08;12.90;99.90
4453;DHT22;2239;48.152;11.584;2023-05-07T03:43:34;12.90;99.90
4453;DHT22;2239;48.152;11.584;2023-05-07T03:45:59;12.90;99.90
4453;DHT22;2239;48.152;11.584;2023-05-07T03:48:25;12.90;99.90
4453;DHT22;2239;48.152;11.584;2023-05-07T03:50:51;12.90;99.90
4453;DHT22;2239;48.152;11.584;2023-05-07T03:53:16;13.00;99.90
4453;DHT22;2239;48.152;11.584;2023-05-07T03:55:42;12.90;99.90
4453;DHT22;2239;48.152;11.584;2023-05-07T03:58:07;12.90;99.90
4453;DHT22;2239;48.152;11.584;2023-05-07T04:00:33;12.90;99.90
4453;DHT22;2239;48.152;11.584;2023-05-07T04:03:03;12.90;99.90
4453;DHT22;2239;48.152;11.584;2023-05-07T04:05:30;12.90;99.90
4453;DHT22;2239;48.152;11.584;2023-05-07T04:07:55;12.90;99.90
4453;DHT22;2239;48.152;11.584;2023-05-07T04:10:21;12.90;99.90
4453;DHT22;2239;48.152;11.584;2023-05-07T04:12:50;13.00;99.90
4453;DHT22;2239;48.152;11.584;2023-05-07T04:15:15;12.90;99.90
4453;DHT22;2239;48.152;11.584;2023-05-07T04:17:41;12.90;99.90
4453;DHT22;2239;48.152;11.584;2023-05-07T04:20:09;12.90;99.90
4453;DHT22;2239;48.152;11.584;2023-05-07T04:22:36;12.90;99.90
4453;DHT22;2239;48.152;11.584;2023-05-07T04:25:02;13.00;99.90
4453;DHT22;2239;48.152;11.584;2023-05-07T04:27:28;13.00;99.90
4453;DHT22;2239;48.152;11.584;2023-05-07T04:29:53;13.00;99.90
4453;DHT22;2239;48.152;11.584;2023-05-07T04:32:21;13.00;99.90
4453;DHT22;2239;48.152;11.584;2023-05-07T04:34:47;13.10;99.90
4453;DHT22;2239;48.152;11.584;2023-05-07T04:37:12;13.10;99.90
4453;DHT22;2239;48.152;11.584;2023-05-07T04:39:38;13.10;99.90
4453;DHT22;2239;48.152;11.584;2023-05-07T04:42:04;13.20;99.90
4453;DHT22;2239;48.152;11.584;2023-05-07T04:44:29;13.30;99.90
4453;DHT22;2239;48.152;11.584;2023-05-07T04:46:56;13.30;99.90
4453;DHT22;2239;48.152;11.584;2023-05-07T04:49:22;13.30;99.90
4453;DHT22;2239;48.152;11.584;2023-05-07T04:51:47;13.40;99.90
4453;DHT22;2239;48.152;11.584;2023-05-07T04:54:13;13.50;99.90
4453;DHT22;2239;48.152;11.584;2023-05-07T04:56:38;13.60;99.90
4453;DHT22;2239;48.152;11.584;2023-05-07T04:59:04;13.70;99.90
4453;DHT22;2239;48.152;11.584;2023-05-07T05:01:30;13.70;99.90
4453;DHT22;2239;48.152;11.584;2023-05-07T05:03:56;13.80;99.90
4453;DHT22;2239;48.152;11.584;2023-05-07T05:06:22;13.80;99.90
4453;DHT22;2239;48.152;11.584;2023-05-07T05:08:47;13.80;99.90
4453;DHT22;2239;48.152;11.584;2023-05-07T05:11:13;13.90;99.90
4453;DHT22;2239;48.152;11.584;2023-05-07T05:13:38;14.00;99.90
4453;DHT22;2239;48.152;11.584;2023-05-07T05:16:04;14.10;99.90
4453;DHT22;2239;48.152;11.584;2023-05-07T05:18:30;14.20;99.90
4453;DHT22;2239;48.152;11.584;2023-05-07T05:20:55;14.20;99.90
4453;DHT22;2239;48.152;11.584;2023-05-07T05:23:21;14.20;99.90
4453;DHT22;2239;48.152;11.584;2023-05-07T05:25:46;14.20;99.90
4453;DHT22;2239;48.152;11.584;2023-05-07T05:28:12;14.30;99.90
4453;DHT22;2239;48.152;11.584;2023-05-07T05:30:39;14.30;99.90
4453;DHT22;2239;48.152;11.584;2023-05-07T05:33:04;14.40;99.90
4453;DHT22;2239;48.152;11.584;2023-05-07T05:35:30;14.50;99.90
4453;DHT22;2239;48.152;11.584;2023-05-07T05:37:56;14.60;99.90
4453;DHT22;2239;48.152;11.584;2023-05-07T05:40:21;14.70;99.90
4453;DHT22;2239;48.152;11.584;2023-05-07T05:42:47;14.80;99.90
4453;DHT22;2239;48.152;11.584;2023-05-07T05:45:12;14.90;99.90
4453;DHT22;2239;48.152;11.584;2023-05-07T05:47:38;15.10;99.90
4453;DHT22;2239;48.152;11.584;2023-05-07T05:50:05;15.10;99.90
4453;DHT22;2239;48.152;11.584;2023-05-07T05:52:31;15.20;99.90
4453;DHT22;2239;48.152;11.584;2023-05-07T05:54:57;15.30;99.90
4453;DHT22;2239;48.152;11.584;2023-05-07T05:57:22;15.30;99.90
4453;DHT22;2239;48.152;11.584;2023-05-07T05:59:48;15.40;99.90
4453;DHT22;2239;48.152;11.584;2023-05-07T06:02:13;15.50;99.90
4453;DHT22;2239;48.152;11.584;2023-05-07T06:04:39;15.60;99.90
4453;DHT22;2239;48.152;11.584;2023-05-07T06:07:05;15.80;99.90
4453;DHT22;2239;48.152;11.584;2023-05-07T06:09:30;15.90;99.90
4453;DHT22;2239;48.152;11.584;2023-05-07T06:11:56;15.90;99.90
4453;DHT22;2239;48.152;11.584;2023-05-07T06:14:21;16.00;99.90
4453;DHT22;2239;48.152;11.584;2023-05-07T06:16:47;16.10;99.90
4453;DHT22;2239;48.152;11.584;2023-05-07T06:19:12;16.20;99.90
4453;DHT22;2239;48.152;11.584;2023-05-07T06:21:39;16.40;99.90
4453;DHT22;2239;48.152;11.584;2023-05-07T06:24:05;16.50;99.90
4453;DHT22;2239;48.152;11.584;2023-05-07T06:26:31;16.50;99.90
4453;DHT22;2239;48.152;11.584;2023-05-07T06:28:56;16.70;99.90
4453;DHT22;2239;48.152;11.584;2023-05-07T06:31:22;16.70;99.90
4453;DHT22;2239;48.152;11.584;2023-05-07T06:33:48;16.60;99.90
4453;DHT22;2239;48.152;11.584;2023-05-07T06:36:14;16.60;99.90
4453;DHT22;2239;48.152;11.584;2023-05-07T06:38:40;16.70;99.90
4453;DHT22;2239;48.152;11.584;2023-05-07T06:41:06;16.90;99.90
4453;DHT22;2239;48.152;11.584;2023-05-07T06:43:32;17.00;99.90
4453;DHT22;2239;48.152;11.584;2023-05-07T06:45:58;17.10;99.90
4453;DHT22;2239;48.152;11.584;2023-05-07T06:48:23;17.10;99.90
4453;DHT22;2239;48.152;11.584;2023-05-07T06:50:49;17.40;99.90
4453;DHT22;2239;48.152;11.584;2023-05-07T06:53:15;17.90;99.90
4453;DHT22;2239;48.152;11.584;2023-05-07T06:55:40;18.40;99.90
4453;DHT22;2239;48.152;11.584;2023-05-07T06:58:07;18.70;99.90
4453;DHT22;2239;48.152;11.584;2023-05-07T07:00:33;18.60;99.90
4453;DHT22;2239;48.152;11.584;2023-05-07T07:02:58;18.30;99.90
4453;DHT22;2239;48.152;11.584;2023-05-07T07:05:25;18.30;99.90
4453;DHT22;2239;48.152;11.584;2023-05-07T07:07:51;18.30;99.90
4453;DHT22;2239;48.152;11.584;2023-05-07T07:10:23;18.40;99.90
4453;DHT22;2239;48.152;11.584;2023-05-07T07:12:49;18.50;99.90
4453;DHT22;2239;48.152;11.584;2023-05-07T07:15:15;18.70;99.90
4453;DHT22;2239;48.152;11.584;2023-05-07T07:17:40;18.80;99.90
4453;DHT22;2239;48.152;11.584;2023-05-07T07:20:06;18.80;99.90
4453;DHT22;2239;48.152;11.584;2023-05-07T07:22:32;19.00;99.90
4453;DHT22;2239;48.152;11.584;2023-05-07T07:24:58;19.00;99.90
4453;DHT22;2239;48.152;11.584;2023-05-07T07:27:23;19.20;99.90
4453;DHT22;2239;48.152;11.584;2023-05-07T07:29:49;19.20;99.90
4453;DHT22;2239;48.152;11.584;2023-05-07T07:32:14;19.20;99.90
4453;DHT22;2239;48.152;11.584;2023-05-07T07:34:40;19.30;99.90
4453;DHT22;2239;48.152;11.584;2023-05-07T07:37:05;19.40;99.90
4453;DHT22;2239;48.152;11.584;2023-05-07T07:39:34;19.40;99.90
4453;DHT22;2239;48.152;11.584;2023-05-07T07:42:00;19.40;99.90
4453;DHT22;2239;48.152;11.584;2023-05-07T07:44:27;19.70;99.90
4453;DHT22;2239;48.152;11.584;2023-05-07T07:46:52;19.90;99.90
4453;DHT22;2239;48.152;11.584;2023-05-07T07:49:18;19.80;99.90
4453;DHT22;2239;48.152;11.584;2023-05-07T07:51:43;19.80;99.90
4453;DHT22;2239;48.152;11.584;2023-05-07T07:54:09;19.90;99.90
4453;DHT22;2239;48.152;11.584;2023-05-07T07:56:35;20.20;99.90
4453;DHT22;2239;48.152;11.584;2023-05-07T07:59:00;20.50;99.90
4453;DHT22;2239;48.152;11.584;2023-05-07T08:01:26;20.70;99.90
4453;DHT22;2239;48.152;11.584;2023-05-07T08:03:52;20.70;99.90
4453;DHT22;2239;48.152;11.584;2023-05-07T08:06:18;20.70;99.90
4453;DHT22;2239;48.152;11.584;2023-05-07T08:08:44;20.80;99.90
4453;DHT22;2239;48.152;11.584;2023-05-07T08:11:09;20.90;99.90
4453;DHT22;2239;48.152;11.584;2023-05-07T08:13:36;21.10;99.90
4453;DHT22;2239;48.152;11.584;2023-05-07T08:16:01;21.10;99.90
4453;DHT22;2239;48.152;11.584;2023-05-07T08:18:27;21.20;99.70
4453;DHT22;2239;48.152;11.584;2023-05-07T08:20:54;21.30;99.90
4453;DHT22;2239;48.152;11.584;2023-05-07T08:23:21;21.30;99.70
4453;DHT22;2239;48.152;11.584;2023-05-07T08:25:48;21.30;98.40
4453;DHT22;2239;48.152;11.584;2023-05-07T08:28:14;21.20;98.50
4453;DHT22;2239;48.152;11.584;2023-05-07T08:30:40;21.30;97.90
4453;DHT22;2239;48.152;11.584;2023-05-07T08:33:05;21.30;97.60
4453;DHT22;2239;48.152;11.584;2023-05-07T08:35:31;21.60;97.50
4453;DHT22;2239;48.152;11.584;2023-05-07T08:37:57;21.90;97.70
4453;DHT22;2239;48.152;11.584;2023-05-07T08:40:25;22.10;97.40
4453;DHT22;2239;48.152;11.584;2023-05-07T08:42:52;22.20;97.30
4453;DHT22;2239;48.152;11.584;2023-05-07T08:45:19;22.40;96.90
4453;DHT22;2239;48.152;11.584;2023-05-07T08:47:47;22.60;96.40
4453;DHT22;2239;48.152;11.584;2023-05-07T08:50:16;22.60;95.80
4453;DHT22;2239;48.152;11.584;2023-05-07T08:52:42;22.60;95.90
4453;DHT22;2239;48.152;11.584;2023-05-07T08:55:08;22.50;95.90
4453;DHT22;2239;48.152;11.584;2023-05-07T08:57:34;22.40;95.80
4453;DHT22;2239;48.152;11.584;2023-05-07T09:00:01;22.60;95.70
4453;DHT22;2239;48.152;11.584;2023-05-07T09:02:26;22.70;95.60
4453;DHT22;2239;48.152;11.584;2023-05-07T09:04:52;22.90;94.90
4453;DHT22;2239;48.152;11.584;2023-05-07T09:07:19;22.60;94.40
4453;DHT22;2239;48.152;11.584;2023-05-07T09:09:46;22.70;94.70
4453;DHT22;2239;48.152;11.584;2023-05-07T09:12:12;23.10;94.60
4453;DHT22;2239;48.152;11.584;2023-05-07T09:14:38;23.40;95.20
4453;DHT22;2239;48.152;11.584;2023-05-07T09:17:04;23.40;95.10
4453;DHT22;2239;48.152;11.584;2023-05-07T09:19:30;23.50;94.90
4453;DHT22;2239;48.152;11.584;2023-05-07T09:21:59;23.50;95.30
4453;DHT22;2239;48.152;11.584;2023-05-07T09:24:26;23.40;95.30
4453;DHT22;2239;48.152;11.584;2023-05-07T09:26:53;23.30;95.30
4453;DHT22;2239;48.152;11.584;2023-05-07T09:29:20;23.30;94.80
4453;DHT22;2239;48.152;11.584;2023-05-07T09:31:46;23.40;95.40
4453;DHT22;2239;48.152;11.584;2023-05-07T09:34:12;23.50;93.40
4453;DHT22;2239;48.152;11.584;2023-05-07T09:36:37;23.60;93.70
4453;DHT22;2239;48.152;11.584;2023-05-07T09:39:03;23.90;93.90
4453;DHT22;2239;48.152;11.584;2023-05-07T09:41:30;24.10;92.90
4453;DHT22;2239;48.152;11.584;2023-05-07T09:43:57;24.10;91.90
4453;DHT22;2239;48.152;11.584;2023-05-07T09:46:34;23.90;91.00
4453;DHT22;2239;48.152;11.584;2023-05-07T09:49:02;23.80;92.20
4453;DHT22;2239;48.152;11.584;2023-05-07T09:51:41;23.70;92.80
4453;DHT22;2239;48.152;11.584;2023-05-07T09:54:09;23.50;92.70
4453;DHT22;2239;48.152;11.584;2023-05-07T09:56:35;23.40;92.70
4453;DHT22;2239;48.152;11.584;2023-05-07T09:59:03;23.40;92.30
4453;DHT22;2239;48.152;11.584;2023-05-07T10:01:31;23.50;91.70
4453;DHT22;2239;48.152;11.584;2023-05-07T10:03:57;23.70;91.20
4453;DHT22;2239;48.152;11.584;2023-05-07T10:06:25;23.80;91.10
4453;DHT22;2239;48.152;11.584;2023-05-07T10:08:54;23.90;90.00
4453;DHT22;2239;48.152;11.584;2023-05-07T10:11:22;24.10;88.40
4453;DHT22;2239;48.152;11.584;2023-05-07T10:13:48;24.00;90.50
4453;DHT22;2239;48.152;11.584;2023-05-07T10:16:14;23.70;89.10
4453;DHT22;2239;48.152;11.584;2023-05-07T10:18:43;23.40;90.00
4453;DHT22;2239;48.152;11.584;2023-05-07T10:21:13;23.10;90.10
4453;DHT22;2239;48.152;11.584;2023-05-07T10:23:43;22.90;90.30
4453;DHT22;2239;48.152;11.584;2023-05-07T10:26:10;23.10;90.70
4453;DHT22;2239;48.152;11.584;2023-05-07T10:28:39;23.00;90.50
4453;DHT22;2239;48.152;11.584;2023-05-07T10:33:51;23.10;90.30
4453;DHT22;2239;48.152;11.584;2023-05-07T10:36:18;23.30;90.40
4453;DHT22;2239;48.152;11.584;2023-05-07T10:38:44;23.40;88.90
4453;DHT22;2239;48.152;11.584;2023-05-07T10:41:11;23.50;88.50
4453;DHT22;2239;48.152;11.584;2023-05-07T10:43:44;23.60;88.90
4453;DHT22;2239;48.152;11.584;2023-05-07T10:46:21;23.80;89.10
4453;DHT22;2239;48.152;11.584;2023-05-07T10:51:34;24.10;86.40
4453;DHT22;2239;48.152;11.584;2023-05-07T10:56:37;24.10;88.00
4453;DHT22;2239;48.152;11.584;2023-05-07T11:01:54;24.50;88.30
4453;DHT22;2239;48.152;11.584;2023-05-07T11:04:20;24.30;88.70
4453;DHT22;2239;48.152;11.584;2023-05-07T11:15:07;24.00;89.80
4453;DHT22;2239;48.152;11.584;2023-05-07T11:17:34;24.00;89.10
4453;DHT22;2239;48.152;11.584;2023-05-07T11:20:01;23.90;89.20
4453;DHT22;2239;48.152;11.584;2023-05-07T11:24:56;23.60;90.00
4453;DHT22;2239;48.152;11.584;2023-05-07T11:27:26;23.80;88.20
4453;DHT22;2239;48.152;11.584;2023-05-07T11:29:52;23.90;88.10
4453;DHT22;2239;48.152;11.584;2023-05-07T11:32:29;24.00;88.00
4453;DHT22;2239;48.152;11.584;2023-05-07T11:34:56;23.80;87.80
4453;DHT22;2239;48.152;11.584;2023-05-07T11:37:23;23.90;88.10
4453;DHT22;2239;48.152;11.584;2023-05-07T11:39:49;23.90;88.20
4453;DHT22;2239;48.152;11.584;2023-05-07T11:42:30;24.10;88.70
4453;DHT22;2239;48.152;11.584;2023-05-07T11:44:55;24.30;86.70
4453;DHT22;2239;48.152;11.584;2023-05-07T11:47:21;24.30;86.20
4453;DHT22;2239;48.152;11.584;2023-05-07T11:49:51;24.40;86.10
4453;DHT22;2239;48.152;11.584;2023-05-07T11:52:18;24.40;86.20
4453;DHT22;2239;48.152;11.584;2023-05-07T11:57:15;24.40;87.10
4453;DHT22;2239;48.152;11.584;2023-05-07T11:59:41;24.30;86.20
4453;DHT22;2239;48.152;11.584;2023-05-07T12:02:09;24.20;86.10
4453;DHT22;2239;48.152;11.584;2023-05-07T12:04:35;24.30;86.50
4453;DHT22;2239;48.152;11.584;2023-05-07T12:07:00;24.40;85.20
4453;DHT22;2239;48.152;11.584;2023-05-07T12:09:26;24.30;84.90
4453;DHT22;2239;48.152;11.584;2023-05-07T12:11:53;24.40;85.20
4453;DHT22;2239;48.152;11.584;2023-05-07T12:14:18;24.40;84.40
4453;DHT22;2239;48.152;11.584;2023-05-07T12:16:44;24.20;83.80
4453;DHT22;2239;48.152;11.584;2023-05-07T12:19:11;24.00;82.90
4453;DHT22;2239;48.152;11.584;2023-05-07T12:21:40;23.90;84.40
4453;DHT22;2239;48.152;11.584;2023-05-07T12:24:07;23.90;84.20
4453;DHT22;2239;48.152;11.584;2023-05-07T12:26:40;24.00;84.10
4453;DHT22;2239;48.152;11.584;2023-05-07T12:29:07;24.00;82.90
4453;DHT22;2239;48.152;11.584;2023-05-07T12:31:32;24.00;84.30
4453;DHT22;2239;48.152;11.584;2023-05-07T12:33:58;24.00;82.30
4453;DHT22;2239;48.152;11.584;2023-05-07T12:36:23;24.10;83.30
4453;DHT22;2239;48.152;11.584;2023-05-07T12:38:51;24.30;82.90
4453;DHT22;2239;48.152;11.584;2023-05-07T12:41:16;24.40;80.50
4453;DHT22;2239;48.152;11.584;2023-05-07T12:43:46;24.30;81.40
4453;DHT22;2239;48.152;11.584;2023-05-07T12:46:12;24.30;81.30
4453;DHT22;2239;48.152;11.584;2023-05-07T12:48:46;24.40;80.40
4453;DHT22;2239;48.152;11.584;2023-05-07T12:51:11;24.20;79.20
4453;DHT22;2239;48.152;11.584;2023-05-07T12:53:42;23.70;79.40
4453;DHT22;2239;48.152;11.584;2023-05-07T12:56:08;23.60;79.90
4453;DHT22;2239;48.152;11.584;2023-05-07T12:58:35;23.50;80.20
4453;DHT22;2239;48.152;11.584;2023-05-07T13:01:06;23.60;80.30
4453;DHT22;2239;48.152;11.584;2023-05-07T13:03:34;23.50;78.90
4453;DHT22;2239;48.152;11.584;2023-05-07T13:06:03;23.60;79.30
4453;DHT22;2239;48.152;11.584;2023-05-07T13:08:31;23.80;78.50
4453;DHT22;2239;48.152;11.584;2023-05-07T13:10:59;24.00;78.40
4453;DHT22;2239;48.152;11.584;2023-05-07T13:13:25;24.00;77.20
4453;DHT22;2239;48.152;11.584;2023-05-07T13:15:51;24.10;77.10
4453;DHT22;2239;48.152;11.584;2023-05-07T13:18:17;24.10;76.20
4453;DHT22;2239;48.152;11.584;2023-05-07T13:20:42;24.00;76.20
4453;DHT22;2239;48.152;11.584;2023-05-07T13:23:08;23.80;74.70
4453;DHT22;2239;48.152;11.584;2023-05-07T13:25:34;23.70;74.90
4453;DHT22;2239;48.152;11.584;2023-05-07T13:27:59;23.70;74.00
4453;DHT22;2239;48.152;11.584;2023-05-07T13:30:25;23.50;73.90
4453;DHT22;2239;48.152;11.584;2023-05-07T13:32:53;23.50;74.40
4453;DHT22;2239;48.152;11.584;2023-05-07T13:35:20;23.70;74.30
4453;DHT22;2239;48.152;11.584;2023-05-07T13:37:46;23.90;73.40
4453;DHT22;2239;48.152;11.584;2023-05-07T13:40:13;23.90;73.20
4453;DHT22;2239;48.152;11.584;2023-05-07T13:42:39;23.90;73.10
4453;DHT22;2239;48.152;11.584;2023-05-07T13:45:04;24.00;72.90
4453;DHT22;2239;48.152;11.584;2023-05-07T13:47:30;24.10;72.90
4453;DHT22;2239;48.152;11.584;2023-05-07T13:49:56;24.20;72.90
4453;DHT22;2239;48.152;11.584;2023-05-07T13:52:22;24.20;73.20
4453;DHT22;2239;48.152;11.584;2023-05-07T13:54:47;24.30;72.40
4453;DHT22;2239;48.152;11.584;2023-05-07T13:57:13;24.30;72.80
4453;DHT22;2239;48.152;11.584;2023-05-07T13:59:38;24.20;73.20
4453;DHT22;2239;48.152;11.584;2023-05-07T14:02:04;24.10;72.80
4453;DHT22;2239;48.152;11.584;2023-05-07T14:04:30;24.00;72.70
4453;DHT22;2239;48.152;11.584;2023-05-07T14:06:56;24.10;72.60
4453;DHT22;2239;48.152;11.584;2023-05-07T14:09:22;24.10;72.70
4453;DHT22;2239;48.152;11.584;2023-05-07T14:11:47;24.20;72.50
4453;DHT22;2239;48.152;11.584;2023-05-07T14:14:17;24.20;72.50
4453;DHT22;2239;48.152;11.584;2023-05-07T14:16:42;24.00;71.80
4453;DHT22;2239;48.152;11.584;2023-05-07T14:19:08;23.70;73.20
4453;DHT22;2239;48.152;11.584;2023-05-07T14:21:33;23.60;73.50
4453;DHT22;2239;48.152;11.584;2023-05-07T14:23:59;23.30;73.80
4453;DHT22;2239;48.152;11.584;2023-05-07T14:26:25;23.20;74.60
4453;DHT22;2239;48.152;11.584;2023-05-07T14:28:52;23.20;74.50
4453;DHT22;2239;48.152;11.584;2023-05-07T14:31:20;23.10;76.20
4453;DHT22;2239;48.152;11.584;2023-05-07T14:33:46;23.10;77.10
4453;DHT22;2239;48.152;11.584;2023-05-07T14:36:11;23.10;78.10
4453;DHT22;2239;48.152;11.584;2023-05-07T14:38:37;23.00;78.60
4453;DHT22;2239;48.152;11.584;2023-05-07T14:41:03;22.90;78.80
4453;DHT22;2239;48.152;11.584;2023-05-07T14:43:29;22.90;80.40
4453;DHT22;2239;48.152;11.584;2023-05-07T14:45:55;22.90;79.60
4453;DHT22;2239;48.152;11.584;2023-05-07T14:48:20;22.90;80.00
4453;DHT22;2239;48.152;11.584;2023-05-07T14:50:49;23.00;80.60
4453;DHT22;2239;48.152;11.584;2023-05-07T14:53:15;23.10;81.40
4453;DHT22;2239;48.152;11.584;2023-05-07T14:55:40;23.10;81.10
4453;DHT22;2239;48.152;11.584;2023-05-07T14:58:06;23.00;81.80
4453;DHT22;2239;48.152;11.584;2023-05-07T15:00:31;22.80;81.30
4453;DHT22;2239;48.152;11.584;2023-05-07T15:03:05;22.70;82.60
4453;DHT22;2239;48.152;11.584;2023-05-07T15:05:31;22.60;83.20
4453;DHT22;2239;48.152;11.584;2023-05-07T15:07:57;22.60;83.40
4453;DHT22;2239;48.152;11.584;2023-05-07T15:10:22;22.50;83.70
4453;DHT22;2239;48.152;11.584;2023-05-07T15:12:48;22.40;83.80
4453;DHT22;2239;48.152;11.584;2023-05-07T15:15:14;22.20;83.80
4453;DHT22;2239;48.152;11.584;2023-05-07T15:17:39;22.00;83.80
4453;DHT22;2239;48.152;11.584;2023-05-07T15:20:05;22.00;84.30
4453;DHT22;2239;48.152;11.584;2023-05-07T15:22:31;21.90;84.60
4453;DHT22;2239;48.152;11.584;2023-05-07T15:24:57;21.80;85.50
4453;DHT22;2239;48.152;11.584;2023-05-07T15:27:24;21.80;86.00
4453;DHT22;2239;48.152;11.584;2023-05-07T15:29:49;21.80;85.70
4453;DHT22;2239;48.152;11.584;2023-05-07T15:32:15;21.70;85.10
4453;DHT22;2239;48.152;11.584;2023-05-07T15:34:40;21.60;84.90
4453;DHT22;2239;48.152;11.584;2023-05-07T15:37:06;21.60;85.70
4453;DHT22;2239;48.152;11.584;2023-05-07T15:39:32;21.70;86.00
4453;DHT22;2239;48.152;11.584;2023-05-07T15:41:57;21.70;86.00
4453;DHT22;2239;48.152;11.584;2023-05-07T15:44:23;21.60;86.40
4453;DHT22;2239;48.152;11.584;2023-05-07T15:46:52;21.50;86.90
4453;DHT22;2239;48.152;11.584;2023-05-07T15:49:18;21.50;86.20
4453;DHT22;2239;48.152;11.584;2023-05-07T15:51:43;21.40;86.00
4453;DHT22;2239;48.152;11.584;2023-05-07T15:54:09;21.30;85.50
4453;DHT22;2239;48.152;11.584;2023-05-07T15:56:35;21.20;85.60
4453;DHT22;2239;48.152;11.584;2023-05-07T15:59:00;21.20;85.90
4453;DHT22;2239;48.152;11.584;2023-05-07T16:01:27;21.20;86.10
4453;DHT22;2239;48.152;11.584;2023-05-07T16:03:52;21.20;85.60